createdAt,value
2019-03-08T00:02:09.406Z,1.97
2019-03-08T00:04:37.727Z,1.90
2019-03-08T00:07:06.090Z,1.90
2019-03-08T00:09:34.330Z,1.87
2019-03-08T00:12:02.568Z,2.40
2019-03-08T00:14:31.147Z,2.33
2019-03-08T00:16:59.386Z,2.17
2019-03-08T00:19:27.626Z,2.50
2019-03-08T00:21:56.022Z,1.73
2019-03-08T00:24:24.246Z,2.50
2019-03-08T00:26:52.489Z,2.37
2019-03-08T00:29:20.962Z,2.40
2019-03-08T00:31:49.218Z,3.77
2019-03-08T00:34:17.460Z,4.40
2019-03-08T00:36:45.731Z,3.87
2019-03-08T00:39:14.326Z,4.00
2019-03-08T00:41:42.569Z,5.17
2019-03-08T00:44:10.988Z,4.47
2019-03-08T00:46:39.257Z,3.30
2019-03-08T00:49:08.122Z,2.93
2019-03-08T00:51:36.562Z,2.53
2019-03-08T00:54:04.811Z,2.10
2019-03-08T00:56:33.132Z,2.50
2019-03-08T00:59:01.770Z,2.13
2019-03-08T01:01:30.847Z,1.90
2019-03-08T01:03:59.151Z,3.60
2019-03-08T01:06:27.435Z,3.67
2019-03-08T01:08:57.342Z,2.70
2019-03-08T01:11:25.579Z,2.40
2019-03-08T01:13:54.144Z,1.90
2019-03-08T01:16:22.382Z,1.93
2019-03-08T01:18:50.641Z,2.70
2019-03-08T01:21:18.886Z,1.40
2019-03-08T01:23:47.313Z,1.97
2019-03-08T01:26:15.541Z,1.53
2019-03-08T01:28:44.302Z,0.93
2019-03-08T01:31:12.668Z,1.70
2019-03-08T01:33:40.941Z,1.20
2019-03-08T01:36:09.222Z,1.03
2019-03-08T01:38:37.526Z,0.97
2019-03-08T01:41:05.755Z,1.33
2019-03-08T01:43:34.459Z,0.93
2019-03-08T01:46:02.708Z,1.17
2019-03-08T01:48:30.978Z,1.30
2019-03-08T01:50:59.256Z,1.73
2019-03-08T01:53:27.497Z,1.53
2019-03-08T01:55:55.909Z,1.37
2019-03-08T01:58:24.423Z,1.47
2019-03-08T02:00:52.656Z,0.83
2019-03-08T02:03:20.948Z,1.40
2019-03-08T02:05:49.190Z,1.77
2019-03-08T02:08:17.469Z,1.43
2019-03-08T02:10:45.772Z,1.30
2019-03-08T02:13:14.500Z,1.40
2019-03-08T02:15:43.458Z,0.80
2019-03-08T02:18:11.860Z,1.00
2019-03-08T02:20:40.176Z,1.03
2019-03-08T02:23:08.470Z,0.50
2019-03-08T02:25:36.738Z,1.10
2019-03-08T02:28:05.310Z,0.90
2019-03-08T02:30:33.557Z,0.60
2019-03-08T02:33:01.794Z,0.80
2019-03-08T02:35:30.055Z,0.70
2019-03-08T02:37:58.330Z,1.00
2019-03-08T02:40:34.072Z,0.83
2019-03-08T02:43:04.358Z,1.20
2019-03-08T02:45:32.655Z,1.47
2019-03-08T02:48:00.907Z,1.43
2019-03-08T02:50:29.149Z,0.83
2019-03-08T02:52:57.760Z,0.93
2019-03-08T02:55:26.087Z,2.30
2019-03-08T02:57:54.373Z,1.77
2019-03-08T03:00:23.201Z,1.63
2019-03-08T03:02:51.470Z,1.53
2019-03-08T03:05:19.723Z,1.40
2019-03-08T03:07:48.026Z,1.57
2019-03-08T03:10:16.282Z,1.60
2019-03-08T03:12:44.673Z,1.20
2019-03-08T03:15:14.496Z,1.90
2019-03-08T03:17:42.759Z,1.60
2019-03-08T03:20:12.807Z,1.60
2019-03-08T03:22:41.051Z,2.40
2019-03-08T03:25:11.026Z,1.20
2019-03-08T03:27:39.349Z,1.63
2019-03-08T03:30:18.968Z,1.23
2019-03-08T03:32:47.222Z,1.83
2019-03-08T03:35:15.460Z,2.50
2019-03-08T03:37:43.726Z,1.83
2019-03-08T03:40:17.170Z,2.10
2019-03-08T03:42:45.408Z,1.73
2019-03-08T03:45:15.488Z,2.03
2019-03-08T03:47:43.762Z,2.00
2019-03-08T03:50:12.862Z,1.27
2019-03-08T03:52:41.294Z,2.20
2019-03-08T03:55:17.395Z,2.90
2019-03-08T03:57:45.654Z,1.77
2019-03-08T04:00:19.701Z,2.30
2019-03-08T04:02:48.818Z,1.43
2019-03-08T04:05:17.081Z,2.60
2019-03-08T04:07:45.334Z,2.47
2019-03-08T04:10:15.064Z,2.70
2019-03-08T04:12:43.300Z,2.60
2019-03-08T04:15:14.975Z,1.70
2019-03-08T04:17:43.293Z,3.03
2019-03-08T04:20:15.738Z,2.90
2019-03-08T04:22:44.015Z,3.53
2019-03-08T04:25:13.294Z,3.20
2019-03-08T04:27:41.934Z,2.30
2019-03-08T04:30:20.311Z,5.13
2019-03-08T04:32:48.594Z,1.93
2019-03-08T04:35:18.486Z,1.63
2019-03-08T04:37:46.723Z,2.40
2019-03-08T04:40:15.138Z,2.40
2019-03-08T04:42:43.391Z,3.20
2019-03-08T04:45:13.240Z,2.20
2019-03-08T04:47:41.511Z,3.93
2019-03-08T04:50:13.024Z,3.27
2019-03-08T04:52:41.305Z,2.63
2019-03-08T04:55:16.686Z,3.80
2019-03-08T04:57:44.633Z,2.73
2019-03-08T05:00:17.325Z,2.20
2019-03-08T05:02:45.587Z,2.63
2019-03-08T05:05:13.860Z,4.47
2019-03-08T05:07:42.128Z,2.70
2019-03-08T05:10:15.120Z,2.37
2019-03-08T05:12:43.394Z,3.40
2019-03-08T05:15:11.635Z,3.10
2019-03-08T05:17:39.947Z,4.80
2019-03-08T05:20:09.660Z,3.73
2019-03-08T05:22:37.950Z,4.13
2019-03-08T05:25:11.108Z,3.50
2019-03-08T05:27:39.355Z,4.47
2019-03-08T05:30:10.879Z,3.53
2019-03-08T05:32:39.216Z,4.07
2019-03-08T05:35:10.812Z,3.57
2019-03-08T05:37:39.065Z,4.20
2019-03-08T05:40:09.923Z,4.20
2019-03-08T05:42:38.191Z,3.50
2019-03-08T05:45:08.386Z,5.20
2019-03-08T05:47:36.737Z,4.23
2019-03-08T05:50:07.612Z,4.80
2019-03-08T05:52:35.875Z,5.57
2019-03-08T05:55:05.440Z,5.37
2019-03-08T05:57:33.670Z,3.40
2019-03-08T06:00:01.943Z,4.47
2019-03-08T06:02:30.261Z,3.57
2019-03-08T06:05:01.297Z,4.43
2019-03-08T06:07:29.559Z,4.60
2019-03-08T06:09:58.041Z,4.70
2019-03-08T06:12:26.309Z,4.97
2019-03-08T06:14:54.602Z,4.87
2019-03-08T06:17:22.902Z,3.77
2019-03-08T06:19:51.207Z,3.90
2019-03-08T06:22:19.480Z,4.73
2019-03-08T06:24:47.810Z,3.67
2019-03-08T06:27:16.058Z,4.10
2019-03-08T06:29:44.364Z,4.30
2019-03-08T06:32:12.614Z,3.40
2019-03-08T06:34:40.863Z,3.30
2019-03-08T06:37:09.183Z,3.57
2019-03-08T06:39:37.448Z,4.50
2019-03-08T06:42:05.877Z,4.00
2019-03-08T06:44:34.146Z,4.13
2019-03-08T06:47:02.403Z,3.40
2019-03-08T06:49:30.798Z,3.53
2019-03-08T06:52:00.890Z,4.23
2019-03-08T06:54:29.061Z,4.40
2019-03-08T06:56:59.176Z,3.60
2019-03-08T06:59:35.311Z,3.47
2019-03-08T07:02:03.611Z,3.07
2019-03-08T07:04:31.865Z,4.33
2019-03-08T07:07:00.115Z,4.93
2019-03-08T07:09:28.382Z,4.23
2019-03-08T07:11:58.068Z,3.30
2019-03-08T07:14:26.284Z,4.60
2019-03-08T07:16:54.596Z,6.47
2019-03-08T07:19:22.902Z,5.07
2019-03-08T07:21:52.841Z,5.57
2019-03-08T07:24:22.743Z,5.13
2019-03-08T07:27:08.741Z,4.07
2019-03-08T07:29:44.414Z,4.23
2019-03-08T07:32:17.773Z,4.13
2019-03-08T07:35:04.151Z,2.40
2019-03-08T07:37:40.338Z,2.70
2019-03-08T07:40:13.623Z,2.70
2019-03-08T07:42:59.384Z,1.87
2019-03-08T07:45:29.387Z,4.07
2019-03-08T07:47:59.273Z,3.27
2019-03-08T07:50:38.339Z,5.80
2019-03-08T07:53:25.985Z,2.47
2019-03-08T07:55:55.953Z,2.80
2019-03-08T07:58:32.010Z,2.90
2019-03-08T08:01:04.784Z,3.07
2019-03-08T08:03:49.685Z,2.70
2019-03-08T08:06:19.582Z,3.90
2019-03-08T08:09:04.193Z,5.13
2019-03-08T08:11:36.784Z,2.90
2019-03-08T08:14:09.679Z,2.43
2019-03-08T08:16:58.031Z,4.00
2019-03-08T08:19:27.936Z,3.33
2019-03-08T08:21:57.910Z,3.27
2019-03-08T08:24:30.501Z,3.37
2019-03-08T08:27:12.250Z,4.67
2019-03-08T08:29:59.938Z,3.87
2019-03-08T08:32:29.906Z,3.03
2019-03-08T08:35:02.763Z,3.40
2019-03-08T08:37:35.848Z,3.43
2019-03-08T08:40:14.475Z,4.10
2019-03-08T08:42:53.072Z,4.20
2019-03-08T08:45:34.885Z,4.23
2019-03-08T08:48:10.552Z,3.43
2019-03-08T08:50:52.238Z,3.20
2019-03-08T08:53:40.330Z,4.37
2019-03-08T08:56:10.316Z,2.90
2019-03-08T08:58:42.967Z,3.97
2019-03-08T09:01:24.714Z,3.67
2019-03-08T09:03:54.599Z,3.27
2019-03-08T09:06:40.853Z,2.33
2019-03-08T09:09:19.411Z,3.33
2019-03-08T09:11:55.373Z,2.80
2019-03-08T09:14:31.207Z,3.03
2019-03-08T09:17:01.103Z,3.33
2019-03-08T09:19:46.216Z,4.53
2019-03-08T09:22:21.657Z,3.67
2019-03-08T09:25:07.870Z,2.57
2019-03-08T09:27:40.288Z,3.80
2019-03-08T09:30:22.620Z,3.37
2019-03-08T09:32:59.320Z,3.03
2019-03-08T09:35:32.996Z,2.47
2019-03-08T09:38:12.706Z,3.10
2019-03-08T09:40:57.816Z,2.97
2019-03-08T09:43:27.714Z,3.77
2019-03-08T09:46:09.555Z,4.63
2019-03-08T09:48:51.617Z,2.33
2019-03-08T09:51:37.949Z,2.90
2019-03-08T09:54:20.080Z,3.83
2019-03-08T09:56:49.995Z,3.70
2019-03-08T09:59:37.908Z,2.10
2019-03-08T10:02:08.110Z,1.90
2019-03-08T10:04:43.692Z,2.37
2019-03-08T10:07:25.643Z,4.40
2019-03-08T10:10:01.569Z,2.43
2019-03-08T10:12:47.322Z,2.60
2019-03-08T10:15:32.449Z,3.33
2019-03-08T10:18:20.247Z,2.60
2019-03-08T10:20:55.847Z,2.50
2019-03-08T10:23:37.843Z,3.10
2019-03-08T10:26:22.947Z,2.70
2019-03-08T10:29:01.775Z,2.20
2019-03-08T10:31:31.712Z,2.20
2019-03-08T10:34:04.307Z,2.30
2019-03-08T10:36:49.259Z,2.63
2019-03-08T10:39:19.144Z,2.63
2019-03-08T10:42:01.136Z,1.80
2019-03-08T10:44:33.825Z,2.43
2019-03-08T10:47:22.122Z,2.43
2019-03-08T10:49:55.124Z,1.93
2019-03-08T10:52:32.316Z,3.00
2019-03-08T10:55:06.451Z,2.43
2019-03-08T10:57:42.132Z,2.20
2019-03-08T11:00:28.385Z,1.70
2019-03-08T11:02:58.298Z,2.60
2019-03-08T11:05:39.477Z,2.03
2019-03-08T11:08:29.675Z,2.13
2019-03-08T11:11:06.049Z,1.50
2019-03-08T11:13:43.046Z,2.30
2019-03-08T11:16:24.958Z,2.80
2019-03-08T11:18:54.685Z,2.40
2019-03-08T11:21:33.760Z,2.30
2019-03-08T11:24:20.195Z,2.80
2019-03-08T11:27:06.484Z,2.90
2019-03-08T11:29:36.407Z,2.50
2019-03-08T11:32:22.787Z,2.53
2019-03-08T11:35:03.349Z,2.10
2019-03-08T11:37:42.199Z,3.20
2019-03-08T11:40:14.227Z,1.67
2019-03-08T11:42:46.653Z,2.53
2019-03-08T11:45:16.542Z,2.67
2019-03-08T11:48:01.822Z,2.53
2019-03-08T11:50:41.196Z,1.87
2019-03-08T11:53:11.104Z,1.97
2019-03-08T11:55:46.605Z,2.40
2019-03-08T11:58:16.520Z,2.83
2019-03-08T12:00:53.236Z,2.30
2019-03-08T12:03:23.327Z,2.77
2019-03-08T12:05:53.248Z,2.33
2019-03-08T12:08:38.078Z,2.80
2019-03-08T12:11:26.158Z,2.90
2019-03-08T12:13:58.389Z,2.20
2019-03-08T12:16:34.038Z,2.40
2019-03-08T12:19:03.942Z,1.80
2019-03-08T12:21:33.823Z,1.67
2019-03-08T12:24:09.823Z,1.83
2019-03-08T12:26:42.199Z,2.47
2019-03-08T12:29:12.088Z,2.20
2019-03-08T12:31:42.125Z,2.47
2019-03-08T12:34:12.047Z,2.27
2019-03-08T12:36:41.992Z,1.87
2019-03-08T12:39:11.884Z,2.13
2019-03-08T12:41:44.871Z,3.70
2019-03-08T12:44:29.962Z,2.60
2019-03-08T12:47:17.950Z,2.20
2019-03-08T12:49:47.861Z,3.33
2019-03-08T12:52:17.955Z,4.77
2019-03-08T12:54:47.969Z,3.17
2019-03-08T12:57:32.226Z,2.10
2019-03-08T13:00:14.402Z,2.90
2019-03-08T13:02:47.014Z,2.20
2019-03-08T13:05:32.891Z,4.10
2019-03-08T13:08:02.780Z,2.10
2019-03-08T13:10:31.043Z,2.50
2019-03-08T13:12:59.895Z,2.90
2019-03-08T13:15:28.155Z,2.43
2019-03-08T13:17:56.460Z,4.50
2019-03-08T13:20:24.748Z,2.73
2019-03-08T13:22:52.996Z,1.93
2019-03-08T13:25:22.221Z,2.63
2019-03-08T13:27:50.496Z,2.27
2019-03-08T13:30:23.238Z,1.93
2019-03-08T13:32:51.585Z,3.57
2019-03-08T13:35:20.422Z,2.47
2019-03-08T13:37:48.659Z,1.70
2019-03-08T13:40:17.044Z,2.23
2019-03-08T13:42:45.394Z,1.27
2019-03-08T13:45:19.015Z,2.10
2019-03-08T13:47:47.328Z,2.30
2019-03-08T13:50:15.751Z,2.27
2019-03-08T13:52:44.351Z,2.20
2019-03-08T13:55:14.990Z,1.90
2019-03-08T13:57:43.305Z,2.87
2019-03-08T14:00:19.891Z,1.50
2019-03-08T14:02:48.192Z,1.80
2019-03-08T14:05:16.524Z,2.07
2019-03-08T14:07:44.757Z,2.17
2019-03-08T14:10:17.770Z,1.50
2019-03-08T14:12:46.042Z,1.70
2019-03-08T14:15:17.878Z,2.20
2019-03-08T14:17:46.136Z,2.13
2019-03-08T14:20:25.297Z,1.87
2019-03-08T14:22:53.673Z,2.03
2019-03-08T14:25:21.931Z,1.70
2019-03-08T14:27:50.167Z,2.27
2019-03-08T14:30:32.200Z,2.03
2019-03-08T14:33:01.539Z,3.10
2019-03-08T14:35:30.998Z,2.47
2019-03-08T14:37:59.516Z,2.00
2019-03-08T14:40:47.470Z,2.70
2019-03-08T14:43:20.276Z,3.20
2019-03-08T14:46:06.395Z,2.40
2019-03-08T14:48:34.776Z,2.80
2019-03-08T14:51:03.359Z,2.50
2019-03-08T14:53:32.757Z,1.97
2019-03-08T14:56:01.418Z,1.93
2019-03-08T14:58:32.528Z,2.20
2019-03-08T15:01:02.131Z,2.60
2019-03-08T15:03:29.883Z,2.33
2019-03-08T15:05:59.346Z,1.10
2019-03-08T15:08:27.727Z,2.43
2019-03-08T15:10:56.122Z,2.10
2019-03-08T15:13:25.815Z,2.10
2019-03-08T15:15:57.896Z,3.37
2019-03-08T15:18:25.836Z,3.27
2019-03-08T15:20:54.779Z,1.90
2019-03-08T15:23:24.188Z,1.77
2019-03-08T15:25:52.434Z,2.17
2019-03-08T15:28:20.702Z,2.07
2019-03-08T15:30:51.889Z,2.40
2019-03-08T15:33:22.955Z,1.87
2019-03-08T15:35:51.181Z,1.80
2019-03-08T15:38:19.456Z,2.50
2019-03-08T15:40:48.875Z,1.33
2019-03-08T15:43:17.263Z,1.70
2019-03-08T15:45:46.179Z,1.97
2019-03-08T15:48:15.851Z,1.80
2019-03-08T15:50:46.679Z,1.27
2019-03-08T15:53:15.275Z,2.87
2019-03-08T15:55:52.555Z,1.87
2019-03-08T15:58:13.736Z,2.03
2019-03-08T16:00:42.039Z,2.10
2019-03-08T16:03:10.306Z,3.13
2019-03-08T16:05:38.586Z,2.27
2019-03-08T16:08:06.898Z,6.03
2019-03-08T16:10:35.385Z,3.87
2019-03-08T16:13:03.616Z,1.80
2019-03-08T16:15:31.867Z,1.13
2019-03-08T16:18:00.129Z,2.60
2019-03-08T16:20:28.484Z,2.43
2019-03-08T16:22:56.970Z,2.53
2019-03-08T16:25:26.081Z,2.40
2019-03-08T16:27:54.350Z,1.90
2019-03-08T16:30:33.335Z,1.17
2019-03-08T16:33:12.539Z,2.30
2019-03-08T16:35:59.247Z,3.30
2019-03-08T16:38:32.195Z,1.83
2019-03-08T16:41:08.208Z,2.60
2019-03-08T16:43:38.212Z,2.40
2019-03-08T16:46:25.112Z,2.07
2019-03-08T16:49:14.902Z,3.00
2019-03-08T16:51:55.043Z,2.80
2019-03-08T16:54:30.344Z,3.10
2019-03-08T16:57:00.477Z,2.80
2019-03-08T16:59:36.250Z,7.70
2019-03-08T17:02:12.375Z,3.43
2019-03-08T17:04:42.355Z,2.60
2019-03-08T17:07:15.224Z,2.17
2019-03-08T17:09:45.187Z,3.47
2019-03-08T17:12:27.350Z,1.87
2019-03-08T17:15:13.463Z,3.07
2019-03-08T17:17:43.414Z,2.10
2019-03-08T17:20:32.003Z,2.10
2019-03-08T17:23:01.892Z,2.07
2019-03-08T17:25:37.867Z,1.70
2019-03-08T17:28:16.825Z,1.90
2019-03-08T17:30:46.709Z,3.40
2019-03-08T17:33:16.742Z,3.13
2019-03-08T17:36:02.837Z,2.40
2019-03-08T17:38:32.867Z,3.10
2019-03-08T17:41:04.561Z,2.90
2019-03-08T17:43:43.587Z,1.77
2019-03-08T17:46:29.809Z,3.33
2019-03-08T17:49:05.876Z,2.80
2019-03-08T17:51:38.567Z,2.60
2019-03-08T17:54:11.404Z,2.13
2019-03-08T17:56:57.144Z,3.30
2019-03-08T17:59:27.044Z,3.80
2019-03-08T18:01:56.960Z,3.07
2019-03-08T18:04:32.676Z,3.63
2019-03-08T18:07:02.815Z,2.80
2019-03-08T18:09:35.668Z,7.93
2019-03-08T18:12:11.691Z,8.87
2019-03-08T18:14:41.584Z,6.63
2019-03-08T18:17:14.532Z,8.83
2019-03-08T18:19:44.470Z,9.40
2019-03-08T18:22:32.876Z,3.43
2019-03-08T18:25:08.494Z,3.33
2019-03-08T18:27:38.389Z,3.53
2019-03-08T18:30:28.157Z,3.30
2019-03-08T18:33:09.983Z,1.20
2019-03-08T18:35:55.771Z,1.97
2019-03-08T18:38:31.315Z,2.40
2019-03-08T18:41:04.001Z,3.10
2019-03-08T18:43:36.576Z,2.00
2019-03-08T18:46:18.755Z,2.43
2019-03-08T18:48:55.234Z,4.67
2019-03-08T18:51:40.328Z,5.87
2019-03-08T18:54:10.208Z,4.10
2019-03-08T18:56:43.380Z,3.43
2019-03-08T18:59:16.270Z,3.30
2019-03-08T19:01:54.888Z,3.63
2019-03-08T19:04:30.624Z,2.97
2019-03-08T19:07:00.591Z,4.07
2019-03-08T19:09:36.300Z,5.23
2019-03-08T19:12:07.137Z,3.03
2019-03-08T19:14:49.329Z,3.73
2019-03-08T19:17:34.279Z,3.87
2019-03-08T19:20:20.391Z,3.60
2019-03-08T19:22:59.365Z,3.03
2019-03-08T19:25:32.410Z,3.43
2019-03-08T19:28:20.625Z,5.17
2019-03-08T19:30:59.668Z,2.90
2019-03-08T19:33:46.217Z,2.50
2019-03-08T19:36:34.234Z,2.67
2019-03-08T19:39:04.137Z,2.63
2019-03-08T19:41:36.483Z,2.77
2019-03-08T19:44:06.403Z,2.97
2019-03-08T19:46:51.062Z,2.50
2019-03-08T19:49:29.754Z,4.33
2019-03-08T19:51:59.752Z,4.83
2019-03-08T19:54:29.773Z,3.10
2019-03-08T19:57:05.657Z,3.40
2019-03-08T19:59:35.579Z,4.27
2019-03-08T20:02:14.508Z,2.60
2019-03-08T20:04:56.126Z,3.97
2019-03-08T20:07:41.353Z,4.47
2019-03-08T20:10:28.103Z,3.73
2019-03-08T20:13:00.940Z,5.00
2019-03-08T20:15:30.827Z,4.57
2019-03-08T20:18:03.370Z,3.43
2019-03-08T20:20:35.755Z,5.13
2019-03-08T20:23:17.730Z,3.60
2019-03-08T20:25:53.273Z,4.90
2019-03-08T20:28:23.200Z,5.40
2019-03-08T20:31:09.323Z,6.00
2019-03-08T20:33:39.270Z,3.70
2019-03-08T20:36:27.562Z,3.40
2019-03-08T20:39:15.966Z,5.10
2019-03-08T20:41:45.982Z,12.50
2019-03-08T20:44:15.891Z,3.60
2019-03-08T20:46:45.785Z,28.10
2019-03-08T20:49:14.363Z,7.23
2019-03-08T20:51:42.615Z,5.37
2019-03-08T20:54:11.001Z,4.87
2019-03-08T20:56:39.432Z,4.00
2019-03-08T20:59:08.073Z,4.33
2019-03-08T21:01:36.415Z,4.60
2019-03-08T21:04:04.931Z,4.93
2019-03-08T21:06:33.574Z,5.33
2019-03-08T21:09:01.895Z,6.20
2019-03-08T21:11:30.206Z,7.57
2019-03-08T21:13:58.614Z,8.53
2019-03-08T21:16:26.836Z,7.73
2019-03-08T21:18:55.251Z,8.13
2019-03-08T21:21:23.681Z,5.70
2019-03-08T21:23:51.930Z,8.80
2019-03-08T21:26:20.277Z,6.67
2019-03-08T21:28:48.701Z,7.47
2019-03-08T21:31:17.088Z,13.07
2019-03-08T21:33:45.356Z,8.23
2019-03-08T21:36:13.645Z,7.27
2019-03-08T21:38:41.891Z,9.50
2019-03-08T21:41:10.361Z,6.60
2019-03-08T21:43:38.648Z,5.47
2019-03-08T21:46:07.572Z,5.10
2019-03-08T21:48:36.133Z,5.70
2019-03-08T21:51:04.415Z,5.87
2019-03-08T21:53:32.658Z,6.30
2019-03-08T21:56:02.330Z,6.90
2019-03-08T21:58:30.887Z,6.80
2019-03-08T22:00:59.138Z,7.83
2019-03-08T22:03:27.418Z,7.93
2019-03-08T22:05:55.768Z,8.80
2019-03-08T22:08:24.264Z,8.70
2019-03-08T22:10:54.150Z,9.37
2019-03-08T22:13:22.442Z,8.83
2019-03-08T22:15:50.835Z,8.53
2019-03-08T22:18:19.079Z,8.10
2019-03-08T22:20:47.710Z,9.37
2019-03-08T22:23:16.028Z,8.33
2019-03-08T22:25:44.371Z,8.50
2019-03-08T22:28:12.668Z,10.30
2019-03-08T22:30:41.033Z,8.43
2019-03-08T22:33:09.268Z,7.77
2019-03-08T22:35:37.751Z,8.70
2019-03-08T22:38:06.046Z,7.97
2019-03-08T22:40:34.399Z,9.13
2019-03-08T22:43:02.693Z,6.93
2019-03-08T22:45:30.969Z,6.87
2019-03-08T22:47:59.238Z,6.50
2019-03-08T22:50:27.614Z,6.77
2019-03-08T22:52:55.857Z,7.27
2019-03-08T22:55:24.178Z,6.50
2019-03-08T22:57:52.633Z,5.90
2019-03-08T23:00:54.844Z,6.30
2019-03-08T23:03:24.532Z,6.30
2019-03-08T23:05:52.898Z,5.80
2019-03-08T23:08:21.141Z,5.30
2019-03-08T23:10:49.547Z,6.57
2019-03-08T23:13:17.846Z,5.67
2019-03-08T23:15:46.168Z,4.20
2019-03-08T23:18:15.178Z,5.57
2019-03-08T23:20:43.606Z,4.70
2019-03-08T23:23:12.094Z,4.30
2019-03-08T23:25:43.531Z,4.30
2019-03-08T23:28:25.480Z,3.43
2019-03-08T23:30:55.368Z,4.83
2019-03-08T23:33:23.913Z,6.57
2019-03-08T23:35:52.349Z,4.47
2019-03-08T23:38:20.664Z,5.60
2019-03-08T23:40:48.901Z,3.93
2019-03-08T23:43:17.187Z,4.70
2019-03-08T23:45:45.592Z,3.70
2019-03-08T23:48:13.840Z,3.00
2019-03-08T23:50:42.117Z,3.90
2019-03-08T23:53:10.421Z,1.67
2019-03-08T23:55:38.655Z,2.73
2019-03-08T23:58:06.994Z,1.70
